Time;durP1;ratioP1;P1;durP2;ratioP2;P2;SDS_P1;SDS_P2;PMS_P1;PMS_P2;Temp;Humidity;BMP_temperature;BMP_pressure;BME280_temperature;BME280_humidity;BME280_pressure;Samples;Min_cycle;Max_cycle;Signal;HPM_P1;HPM_P2
2023/06/03 00:01:32;;;;;;;1999.90;999.90;;;9.80;99.90;;;;;;5114046;27;20922;-73
2023/06/03 00:03:59;;;;;;;1999.90;999.90;;;9.80;99.90;;;;;;5101082;28;20434;-72
2023/06/03 00:06:25;;;;;;;1999.90;999.90;;;9.90;99.90;;;;;;5117109;27;20840;-72
2023/06/03 00:08:52;;;;;;;1999.90;999.90;;;10.00;99.90;;;;;;5115120;27;20483;-72
2023/06/03 00:11:20;;;;;;;1999.90;999.90;;;10.10;99.90;;;;;;5109739;27;20426;-72
2023/06/03 00:13:47;;;;;;;1999.90;999.90;;;10.00;99.90;;;;;;5114231;27;20424;-69
2023/06/03 00:16:14;;;;;;;1999.90;999.90;;;10.10;99.90;;;;;;5113109;27;20481;-70
2023/06/03 00:18:41;;;;;;;1999.90;999.90;;;10.10;99.90;;;;;;5113511;27;20509;-70
2023/06/03 00:21:09;;;;;;;1999.90;999.90;;;10.10;99.90;;;;;;5114231;28;20780;-70
2023/06/03 00:23:36;;;;;;;1999.90;999.90;;;10.10;99.90;;;;;;5097804;28;20915;-73
2023/06/03 00:26:03;;;;;;;1999.90;999.90;;;10.10;99.90;;;;;;5110056;28;20805;-73
2023/06/03 00:28:31;;;;;;;1999.90;999.90;;;10.10;99.90;;;;;;5109498;28;20432;-72
2023/06/03 00:30:58;;;;;;;1999.90;999.90;;;10.00;99.90;;;;;;5120955;28;20487;-73
2023/06/03 00:33:25;;;;;;;1999.90;999.90;;;9.80;99.90;;;;;;5109124;28;20845;-74
2023/06/03 00:35:51;;;;;;;1999.90;999.90;;;9.60;99.90;;;;;;5102392;28;20450;-73
2023/06/03 00:38:18;;;;;;;1999.90;999.90;;;9.60;99.90;;;;;;5111170;28;20439;-73
2023/06/03 00:40:45;;;;;;;1999.90;999.90;;;9.50;99.90;;;;;;5120996;28;20483;-73
2023/06/03 00:43:11;;;;;;;1999.90;999.90;;;9.40;99.90;;;;;;5108028;28;20432;-74
2023/06/03 00:45:39;;;;;;;1999.90;999.90;;;9.00;99.90;;;;;;5110135;28;20436;-73
2023/06/03 00:48:06;;;;;;;1999.90;999.90;;;9.00;99.90;;;;;;5108903;28;20428;-73
2023/06/03 00:50:33;;;;;;;1999.90;999.90;;;9.00;99.90;;;;;;5109328;28;20432;-73
2023/06/03 00:53:02;;;;;;;1999.90;999.90;;;9.10;99.90;;;;;;5111022;28;20455;-73
2023/06/03 00:55:28;;;;;;;1999.90;999.90;;;9.20;99.90;;;;;;5116333;28;20428;-74
2023/06/03 00:57:55;;;;;;;1999.90;999.90;;;9.10;99.90;;;;;;5110617;28;20475;-73
2023/06/03 01:00:22;;;;;;;1999.90;999.90;;;9.10;99.90;;;;;;5102639;28;20454;-74
2023/06/03 01:02:50;;;;;;;1999.90;999.90;;;9.20;99.90;;;;;;5116121;28;20458;-73
2023/06/03 01:05:17;;;;;;;1999.90;999.90;;;9.30;99.90;;;;;;5114001;28;20428;-73
2023/06/03 01:07:52;;;;;;;1999.90;999.90;;;9.30;99.90;;;;;;5110131;28;20424;-72
2023/06/03 01:10:23;;;;;;;1999.90;999.90;;;9.10;99.90;;;;;;5102818;28;20477;-73
2023/06/03 01:12:58;;;;;;;1999.90;999.90;;;9.00;99.90;;;;;;5106565;28;20448;-74
2023/06/03 01:15:27;;;;;;;1999.90;999.90;;;8.90;99.90;;;;;;5110212;28;20431;-73
2023/06/03 01:18:00;;;;;;;1999.90;999.90;;;8.90;99.90;;;;;;5117796;27;20443;-74
2023/06/03 01:20:28;;;;;;;1999.90;999.90;;;8.80;99.90;;;;;;5111915;27;20424;-73
2023/06/03 01:22:58;;;;;;;1999.90;999.90;;;8.80;99.90;;;;;;5105698;27;20430;-73
2023/06/03 01:25:26;;;;;;;1999.90;999.90;;;8.80;99.90;;;;;;5126397;27;20424;-74
2023/06/03 01:27:53;;;;;;;1999.90;999.90;;;8.50;99.90;;;;;;5115637;27;20844;-73
2023/06/03 01:30:21;;;;;;;1999.90;999.90;;;8.40;99.90;;;;;;5112782;27;20480;-74
2023/06/03 01:32:50;;;;;;;1999.90;999.90;;;8.20;99.90;;;;;;5113818;27;20454;-72
2023/06/03 01:35:17;;;;;;;1999.90;999.90;;;7.90;99.90;;;;;;5112505;27;20763;-72
2023/06/03 01:37:45;;;;;;;1999.90;999.90;;;7.80;99.90;;;;;;5121093;27;20430;-72
2023/06/03 01:40:12;;;;;;;1999.90;999.90;;;7.50;99.90;;;;;;5117651;27;20428;-74
2023/06/03 01:42:40;;;;;;;1999.90;999.90;;;7.60;99.90;;;;;;5117738;27;20427;-73
2023/06/03 01:45:08;;;;;;;1999.90;999.90;;;7.70;99.90;;;;;;5105157;27;20434;-74
2023/06/03 01:47:35;;;;;;;1999.90;999.90;;;7.70;99.90;;;;;;5117934;27;20432;-73
2023/06/03 01:50:01;;;;;;;1999.90;999.90;;;7.70;99.90;;;;;;5121228;27;20487;-73
2023/06/03 01:52:28;;;;;;;1999.90;999.90;;;7.90;99.90;;;;;;5107136;27;20477;-73
2023/06/03 01:54:55;;;;;;;1999.90;999.90;;;8.00;99.90;;;;;;5115016;27;20428;-73
2023/06/03 01:57:22;;;;;;;1999.90;999.90;;;8.00;99.90;;;;;;5104287;27;20440;-73
2023/06/03 01:59:52;;;;;;;1999.90;999.90;;;7.80;99.90;;;;;;5115735;27;20495;-72
2023/06/03 02:02:19;;;;;;;1999.90;999.90;;;7.60;99.90;;;;;;5115066;27;20427;-72
2023/06/03 02:04:46;;;;;;;1999.90;999.90;;;7.40;99.90;;;;;;5116798;27;20431;-72
2023/06/03 02:07:13;;;;;;;1999.90;999.90;;;7.40;99.90;;;;;;5114094;27;20519;-72
2023/06/03 02:09:40;;;;;;;1999.90;999.90;;;7.50;99.90;;;;;;5115964;27;20433;-72
2023/06/03 02:12:08;;;;;;;1999.90;999.90;;;7.40;99.90;;;;;;5126043;27;20426;-73
2023/06/03 02:14:36;;;;;;;1999.90;999.90;;;7.20;99.90;;;;;;5115043;27;20505;-73
2023/06/03 02:17:06;;;;;;;1999.90;999.90;;;7.10;99.90;;;;;;5105875;28;20431;-75
2023/06/03 02:19:32;;;;;;;1999.90;999.90;;;6.90;99.90;;;;;;5106632;27;20432;-75
2023/06/03 02:21:59;;;;;;;1999.90;999.90;;;7.00;99.90;;;;;;5125112;27;20846;-75
2023/06/03 02:24:28;;;;;;;1999.90;999.90;;;7.00;99.90;;;;;;5118573;27;20436;-74
2023/06/03 02:27:00;;;;;;;1999.90;999.90;;;6.90;99.90;;;;;;5113003;27;20973;-73
2023/06/03 02:29:27;;;;;;;1999.90;999.90;;;7.00;99.90;;;;;;5112363;27;20455;-73
2023/06/03 02:31:55;;;;;;;1999.90;999.90;;;7.10;99.90;;;;;;5117961;27;20434;-73
2023/06/03 02:34:23;;;;;;;1999.90;999.90;;;7.20;99.90;;;;;;5116550;27;20430;-73
2023/06/03 02:36:50;;;;;;;1999.90;999.90;;;7.30;99.90;;;;;;5120766;27;20424;-73
2023/06/03 02:39:17;;;;;;;1999.90;999.90;;;7.20;99.90;;;;;;5110999;27;21008;-74
2023/06/03 02:41:45;;;;;;;1999.90;999.90;;;7.30;99.90;;;;;;5109884;28;20432;-73
2023/06/03 02:44:12;;;;;;;1999.90;999.90;;;7.30;99.90;;;;;;5117571;27;20433;-74
2023/06/03 02:46:39;;;;;;;1999.90;999.90;;;7.20;99.90;;;;;;5119954;27;20481;-73
2023/06/03 02:49:08;;;;;;;1999.90;999.90;;;7.30;99.90;;;;;;5120350;27;20434;-74
2023/06/03 02:51:36;;;;;;;1999.90;999.90;;;7.30;99.90;;;;;;5111559;27;20481;-73
2023/06/03 02:54:03;;;;;;;1999.90;999.90;;;7.10;99.90;;;;;;5111130;27;20507;-73
2023/06/03 02:56:30;;;;;;;1999.90;999.90;;;7.10;99.90;;;;;;5114450;27;20428;-73
2023/06/03 02:58:57;;;;;;;1999.90;999.90;;;7.10;99.90;;;;;;5122636;27;20430;-73
2023/06/03 03:01:24;;;;;;;1999.90;999.90;;;7.20;99.90;;;;;;5115091;27;20426;-73
2023/06/03 03:03:51;;;;;;;1999.90;999.90;;;7.30;99.90;;;;;;5111290;27;20428;-73
2023/06/03 03:06:19;;;;;;;1999.90;999.90;;;7.30;99.90;;;;;;5108096;28;20431;-73
2023/06/03 03:08:47;;;;;;;1999.90;999.90;;;7.20;99.90;;;;;;5111301;27;20945;-72
2023/06/03 03:11:14;;;;;;;1999.90;999.90;;;7.30;99.90;;;;;;5114753;27;21026;-73
2023/06/03 03:13:41;;;;;;;1999.90;999.90;;;7.10;99.90;;;;;;5106646;27;20432;-72
2023/06/03 03:16:08;;;;;;;1999.90;999.90;;;7.10;99.90;;;;;;5109408;28;20918;-73
2023/06/03 03:18:35;;;;;;;1999.90;999.90;;;7.10;99.90;;;;;;5116192;27;20437;-73
2023/06/03 03:21:02;;;;;;;1999.90;999.90;;;7.00;99.90;;;;;;5123128;27;20834;-73
2023/06/03 03:23:29;;;;;;;1999.90;999.90;;;6.90;99.90;;;;;;5109755;27;20430;-73
2023/06/03 03:26:00;;;;;;;1999.90;999.90;;;6.90;99.90;;;;;;5108342;27;20431;-72
2023/06/03 03:28:27;;;;;;;1999.90;999.90;;;6.80;99.90;;;;;;5104999;27;20914;-73
2023/06/03 03:30:55;;;;;;;1999.90;999.90;;;6.90;99.90;;;;;;5116898;27;20471;-72
2023/06/03 03:33:22;;;;;;;1999.90;999.90;;;7.10;99.90;;;;;;5114264;27;20451;-73
2023/06/03 03:35:49;;;;;;;1999.90;999.90;;;7.00;99.90;;;;;;5110258;27;20434;-72
2023/06/03 03:38:16;;;;;;;1999.90;999.90;;;7.20;99.90;;;;;;5112800;27;20428;-73
2023/06/03 03:40:43;;;;;;;1999.90;999.90;;;7.40;99.90;;;;;;5105959;27;20425;-73
2023/06/03 03:43:16;;;;;;;1999.90;999.90;;;7.60;99.90;;;;;;5099367;28;20440;-73
2023/06/03 03:45:43;;;;;;;1999.90;999.90;;;7.60;99.90;;;;;;5115227;27;20779;-73
2023/06/03 03:48:13;;;;;;;1999.90;999.90;;;7.60;99.90;;;;;;5117033;27;20480;-73
2023/06/03 03:50:45;;;;;;;1999.90;999.90;;;7.60;99.90;;;;;;5114816;27;20844;-72
2023/06/03 03:53:13;;;;;;;1999.90;999.90;;;7.70;99.90;;;;;;5113992;27;20477;-73
2023/06/03 03:55:42;;;;;;;1999.90;999.90;;;7.40;99.90;;;;;;5112371;27;20497;-73
2023/06/03 03:58:25;;;;;;;1999.90;999.90;;;8.00;99.90;;;;;;5111864;27;20435;-74
2023/06/03 04:00:52;;;;;;;1999.90;999.90;;;7.10;99.90;;;;;;5109590;27;20432;-73
2023/06/03 04:03:19;;;;;;;1999.90;999.90;;;7.30;99.90;;;;;;5114630;27;20832;-73
2023/06/03 04:05:47;;;;;;;1999.90;999.90;;;7.30;99.90;;;;;;5106284;27;20477;-71
2023/06/03 04:08:32;;;;;;;1999.90;999.90;;;7.50;99.90;;;;;;5102442;27;20420;-73
2023/06/03 04:10:59;;;;;;;1999.90;999.90;;;7.60;99.90;;;;;;5119482;27;20434;-74
2023/06/03 04:13:27;;;;;;;1999.90;999.90;;;7.80;99.90;;;;;;5119418;27;20521;-73
2023/06/03 04:15:54;;;;;;;1999.90;999.90;;;7.70;99.90;;;;;;5120160;27;20926;-73
2023/06/03 04:18:22;;;;;;;1999.90;999.90;;;7.80;99.90;;;;;;5116256;27;20456;-73
2023/06/03 04:20:49;;;;;;;1999.90;999.90;;;7.90;99.90;;;;;;5111664;28;20436;-73
2023/06/03 04:23:19;;;;;;;1999.90;999.90;;;7.80;99.90;;;;;;5116023;27;20426;-74
2023/06/03 04:25:46;;;;;;;1999.90;999.90;;;7.80;99.90;;;;;;5106648;28;20520;-72
2023/06/03 04:28:13;;;;;;;1999.90;999.90;;;7.90;99.90;;;;;;5117179;28;20422;-73
2023/06/03 04:30:41;;;;;;;1999.90;999.90;;;8.20;99.90;;;;;;5108383;28;20854;-72
2023/06/03 04:33:08;;;;;;;1999.90;999.90;;;9.00;99.90;;;;;;5104910;28;20465;-73
2023/06/03 04:35:35;;;;;;;1999.90;999.90;;;9.80;99.90;;;;;;5112433;28;20430;-72
2023/06/03 04:38:01;;;;;;;1999.90;999.90;;;10.60;99.90;;;;;;5118156;28;20422;-70
2023/06/03 04:40:28;;;;;;;1999.90;999.90;;;10.80;99.90;;;;;;5113576;28;20927;-73
2023/06/03 04:42:55;;;;;;;1999.90;999.90;;;11.50;99.90;;;;;;5108738;28;20438;-73
2023/06/03 04:45:23;;;;;;;1999.90;999.90;;;12.10;99.90;;;;;;5097423;28;20439;-73
2023/06/03 04:47:58;;;;;;;1999.90;999.90;;;12.40;99.90;;;;;;5091509;28;20426;-71
2023/06/03 04:50:27;;;;;;;1999.90;999.90;;;13.00;99.90;;;;;;5108145;27;20424;-72
2023/06/03 04:52:56;;;;;;;1999.90;999.90;;;13.30;99.90;;;;;;5122948;27;20421;-72
2023/06/03 04:55:23;;;;;;;1999.90;999.90;;;13.30;99.90;;;;;;5118610;27;20850;-73
2023/06/03 04:57:50;;;;;;;1999.90;999.90;;;13.40;99.90;;;;;;5118424;27;20427;-73
2023/06/03 05:00:19;;;;;;;1999.90;999.90;;;13.40;99.90;;;;;;5115646;27;20447;-73
2023/06/03 05:02:55;;;;;;;1999.90;999.90;;;14.10;99.90;;;;;;5121217;27;20505;-73
2023/06/03 05:05:24;;;;;;;1999.90;999.90;;;14.40;99.20;;;;;;5112008;27;20423;-73
2023/06/03 05:07:51;;;;;;;1999.90;999.90;;;14.70;98.40;;;;;;5123711;27;20547;-73
2023/06/03 05:10:18;;;;;;;1999.90;999.90;;;15.20;97.60;;;;;;5120868;27;20430;-73
2023/06/03 05:12:46;;;;;;;1999.90;999.90;;;15.40;96.90;;;;;;5106945;27;20910;-74
2023/06/03 05:15:13;;;;;;;1999.90;999.90;;;15.80;96.00;;;;;;5111321;27;20436;-72
2023/06/03 05:17:40;;;;;;;1999.90;999.90;;;15.90;95.20;;;;;;5128639;27;20428;-72
2023/06/03 05:20:08;;;;;;;1999.90;999.90;;;15.90;93.90;;;;;;5121943;27;20424;-72
2023/06/03 05:22:36;;;;;;;1999.90;999.90;;;15.50;94.30;;;;;;5119174;27;20432;-71
2023/06/03 05:25:06;;;;;;;1999.90;999.90;;;14.70;95.20;;;;;;5114462;27;20516;-72
2023/06/03 05:27:33;;;;;;;1999.90;999.90;;;14.50;97.00;;;;;;5119453;27;20779;-73
2023/06/03 05:30:00;;;;;;;1999.90;999.90;;;15.00;96.80;;;;;;5112439;27;20453;-73
2023/06/03 05:32:26;;;;;;;1999.90;999.90;;;15.00;97.10;;;;;;5108513;28;20481;-72
2023/06/03 05:34:53;;;;;;;1999.90;999.90;;;14.90;96.40;;;;;;5122473;27;20477;-72
2023/06/03 05:37:20;;;;;;;1999.90;999.90;;;15.30;96.50;;;;;;5119978;27;20426;-70
2023/06/03 05:39:48;;;;;;;1999.90;999.90;;;15.30;96.20;;;;;;5115737;27;20455;-71
2023/06/03 05:42:14;;;;;;;1999.90;999.90;;;15.20;97.00;;;;;;5112437;27;20422;-72
2023/06/03 05:44:41;;;;;;;1999.90;999.90;;;15.30;97.50;;;;;;5119312;27;20423;-72
2023/06/03 05:47:08;;;;;;;1999.90;999.90;;;15.20;96.40;;;;;;5121081;27;20422;-72
2023/06/03 05:49:34;;;;;;;1999.90;999.90;;;14.90;96.80;;;;;;5113487;27;20854;-73
2023/06/03 05:52:01;;;;;;;1999.90;999.90;;;14.70;96.60;;;;;;5112841;27;20801;-71
2023/06/03 05:54:28;;;;;;;1999.90;999.90;;;14.50;96.60;;;;;;5112932;27;20428;-71
2023/06/03 05:56:57;;;;;;;1999.90;999.90;;;14.60;97.00;;;;;;5114412;27;20932;-72
2023/06/03 05:59:24;;;;;;;1999.90;999.90;;;14.60;96.90;;;;;;5125780;27;20488;-72
2023/06/03 06:01:51;;;;;;;1999.90;999.90;;;14.90;96.00;;;;;;5118731;27;20474;-71
2023/06/03 06:04:17;;;;;;;1999.90;999.90;;;14.70;96.40;;;;;;5114484;27;20440;-72
2023/06/03 06:06:44;;;;;;;1999.90;999.90;;;14.70;95.60;;;;;;5112313;27;20485;-71
2023/06/03 06:09:11;;;;;;;1999.90;999.90;;;14.70;95.00;;;;;;5109580;27;20422;-72
2023/06/03 06:11:37;;;;;;;1999.90;999.90;;;14.70;95.80;;;;;;5124865;27;20482;-72
2023/06/03 06:14:06;;;;;;;1999.90;999.90;;;15.10;95.80;;;;;;5113449;27;20440;-72
2023/06/03 06:16:32;;;;;;;1999.90;999.90;;;14.50;96.10;;;;;;5116213;27;20965;-72
2023/06/03 06:18:59;;;;;;;1999.90;999.90;;;14.60;96.00;;;;;;5107187;27;20469;-72
2023/06/03 06:21:26;;;;;;;1999.90;999.90;;;14.90;96.20;;;;;;5111711;27;20424;-73
2023/06/03 06:23:52;;;;;;;1999.90;999.90;;;15.20;95.90;;;;;;5113785;27;20410;-72
2023/06/03 06:26:20;;;;;;;1999.90;999.90;;;14.90;95.80;;;;;;5121731;27;20468;-72
2023/06/03 06:28:47;;;;;;;1999.90;999.90;;;15.20;96.20;;;;;;5116630;27;20446;-72
2023/06/03 06:31:16;;;;;;;1999.90;999.90;;;14.90;95.80;;;;;;5114035;27;20799;-71
2023/06/03 06:33:47;;;;;;;1999.90;999.90;;;15.50;96.50;;;;;;5102874;27;20424;-74
2023/06/03 06:36:31;;;;;;;1999.90;999.90;;;15.70;94.70;;;;;;5100574;28;20436;-74
2023/06/03 06:38:58;;;;;;;1999.90;999.90;;;15.90;94.50;;;;;;5109181;27;20454;-73
2023/06/03 06:41:28;;;;;;;1999.90;999.90;;;15.60;94.80;;;;;;5117415;27;20452;-72
2023/06/03 06:43:55;;;;;;;1999.90;999.90;;;15.70;94.90;;;;;;5109589;27;20442;-71
2023/06/03 06:46:25;;;;;;;1999.90;999.90;;;15.50;94.60;;;;;;5108203;27;20436;-72
2023/06/03 06:48:51;;;;;;;1999.90;999.90;;;15.40;94.80;;;;;;5106688;27;20865;-72
2023/06/03 06:51:19;;;;;;;1999.90;999.90;;;15.20;95.00;;;;;;5114210;27;20428;-71
2023/06/03 06:53:52;;;;;;;1999.90;999.90;;;15.10;94.30;;;;;;5123119;27;20435;-69
2023/06/03 06:56:19;;;;;;;1999.90;999.90;;;15.40;94.30;;;;;;5119625;27;20438;-72
2023/06/03 06:58:46;;;;;;;1999.90;999.90;;;15.70;93.10;;;;;;5109227;27;20444;-72
2023/06/03 07:01:13;;;;;;;1999.90;999.90;;;15.70;92.60;;;;;;5105751;27;20428;-70
2023/06/03 07:03:41;;;;;;;1999.90;999.90;;;15.80;93.10;;;;;;5108714;27;20470;-71
2023/06/03 07:06:07;;;;;;;1999.90;999.90;;;15.90;93.10;;;;;;5119608;27;20455;-72
2023/06/03 07:08:34;;;;;;;1999.90;999.90;;;16.10;93.40;;;;;;5120674;27;20441;-74
2023/06/03 07:11:03;;;;;;;1999.90;999.90;;;16.20;92.80;;;;;;5102610;27;20549;-74
2023/06/03 07:13:30;;;;;;;1999.90;999.90;;;16.10;93.20;;;;;;5114968;27;20461;-74
2023/06/03 07:15:56;;;;;;;1999.90;999.90;;;16.10;92.90;;;;;;5115693;27;20480;-73
2023/06/03 07:18:25;;;;;;;1999.90;999.90;;;16.20;92.60;;;;;;5124112;27;20510;-72
2023/06/03 07:20:53;;;;;;;1999.90;999.90;;;15.90;92.40;;;;;;5121333;27;20866;-72
2023/06/03 07:23:21;;;;;;;1999.90;999.90;;;15.90;92.80;;;;;;5116021;27;20420;-72
2023/06/03 07:25:50;;;;;;;1999.90;999.90;;;15.80;92.90;;;;;;5104933;27;20424;-73
2023/06/03 07:28:18;;;;;;;1999.90;999.90;;;16.00;92.70;;;;;;5101843;28;20479;-69
2023/06/03 07:30:47;;;;;;;1999.90;999.90;;;16.40;93.30;;;;;;5118428;27;20428;-74
2023/06/03 07:33:26;;;;;;;1999.90;999.90;;;16.70;92.50;;;;;;5117554;27;20521;-75
2023/06/03 07:35:55;;;;;;;1999.90;999.90;;;17.10;92.50;;;;;;5115398;27;20467;-74
2023/06/03 07:38:55;;;;;;;1999.90;999.90;;;17.00;91.70;;;;;;5116322;27;20435;-72
2023/06/03 07:41:37;;;;;;;1999.90;999.90;;;16.90;92.20;;;;;;5105283;27;20420;-74
2023/06/03 07:44:06;;;;;;;1999.90;999.90;;;17.00;91.30;;;;;;5122231;27;20430;-74
2023/06/03 07:46:38;;;;;;;1999.90;999.90;;;16.80;91.80;;;;;;5116363;27;20434;-72
2023/06/03 07:49:07;;;;;;;1999.90;999.90;;;16.60;92.50;;;;;;5106937;27;20923;-72
2023/06/03 07:51:36;;;;;;;1999.90;999.90;;;16.80;90.90;;;;;;5110070;27;20586;-70
2023/06/03 07:54:03;;;;;;;1999.90;999.90;;;17.10;90.50;;;;;;5107517;27;20424;-72
2023/06/03 07:56:30;;;;;;;1999.90;999.90;;;17.40;90.90;;;;;;5110856;27;20428;-75
2023/06/03 07:59:00;;;;;;;1999.90;999.90;;;17.50;91.00;;;;;;5122330;27;20435;-73
2023/06/03 08:01:27;;;;;;;1999.90;999.90;;;17.60;90.60;;;;;;5103486;27;20998;-74
2023/06/03 08:03:54;;;;;;;1999.90;999.90;;;17.40;89.30;;;;;;5112151;27;20828;-74
2023/06/03 08:06:26;;;;;;;1999.90;999.90;;;17.90;88.50;;;;;;5116482;27;20429;-74
2023/06/03 08:08:56;;;;;;;1999.90;999.90;;;17.70;88.80;;;;;;5108996;27;20545;-74
2023/06/03 08:11:23;;;;;;;1999.90;999.90;;;17.70;86.70;;;;;;5112265;27;20434;-74
2023/06/03 08:13:50;;;;;;;1999.90;999.90;;;18.00;86.40;;;;;;5103865;27;20832;-74
2023/06/03 08:16:20;;;;;;;1999.90;999.90;;;17.80;86.20;;;;;;5109531;28;20428;-74
2023/06/03 08:18:50;;;;;;;1999.90;999.90;;;17.90;87.40;;;;;;5098167;28;20514;-75
2023/06/03 08:21:18;;;;;;;1999.90;999.90;;;17.90;86.70;;;;;;5110662;27;20424;-74
2023/06/03 08:23:45;;;;;;;1999.90;999.90;;;18.00;85.40;;;;;;5097617;28;20437;-73
2023/06/03 08:26:15;;;;;;;1999.90;999.90;;;18.30;85.10;;;;;;5109572;28;21278;-74
2023/06/03 08:28:43;;;;;;;1999.90;999.90;;;18.10;85.90;;;;;;5092287;28;20413;-74
2023/06/03 08:31:10;;;;;;;1999.90;999.90;;;18.10;84.80;;;;;;5105360;28;20440;-74
2023/06/03 08:33:37;;;;;;;1999.90;999.90;;;18.50;82.50;;;;;;5105308;28;20847;-73
2023/06/03 08:36:04;;;;;;;1999.90;999.90;;;18.70;81.60;;;;;;5119547;28;20428;-74
2023/06/03 08:38:31;;;;;;;1999.90;999.90;;;19.00;82.70;;;;;;5119845;28;20899;-74
2023/06/03 08:40:58;;;;;;;1999.90;999.90;;;19.00;83.60;;;;;;5113661;28;21063;-74
2023/06/03 08:43:32;;;;;;;1999.90;999.90;;;19.20;85.20;;;;;;5113701;28;20834;-72
2023/06/03 08:46:09;;;;;;;1999.90;999.90;;;19.50;84.10;;;;;;5104974;28;20425;-74
2023/06/03 08:48:43;;;;;;;1999.90;999.90;;;18.90;82.30;;;;;;5098978;28;20421;-74
2023/06/03 08:51:15;;;;;;;1999.90;999.90;;;19.20;82.70;;;;;;5112501;28;20430;-74
2023/06/03 08:53:48;;;;;;;1999.90;999.90;;;18.80;83.10;;;;;;5109872;28;20424;-74
2023/06/03 08:56:17;;;;;;;1999.90;999.90;;;19.10;82.60;;;;;;5112575;28;20510;-73
2023/06/03 08:58:48;;;;;;;1999.90;999.90;;;19.50;82.60;;;;;;5104648;28;20431;-71
2023/06/03 09:01:17;;;;;;;1999.90;999.90;;;19.70;78.50;;;;;;5106690;28;20935;-70
2023/06/03 09:03:44;;;;;;;1999.90;999.90;;;19.10;80.90;;;;;;5114477;28;20520;-72
2023/06/03 09:06:13;;;;;;;1999.90;999.90;;;18.70;79.30;;;;;;5106677;28;20427;-73
2023/06/03 09:08:41;;;;;;;1999.90;999.90;;;18.60;80.00;;;;;;5113907;28;20426;-74
2023/06/03 09:11:11;;;;;;;1999.90;999.90;;;18.50;82.00;;;;;;5109953;28;20408;-70
2023/06/03 09:13:39;;;;;;;1999.90;999.90;;;18.40;82.20;;;;;;5109163;28;20410;-70
2023/06/03 09:16:09;;;;;;;1999.90;999.90;;;18.60;82.30;;;;;;5098202;28;20406;-73
2023/06/03 09:18:35;;;;;;;1999.90;999.90;;;18.80;85.00;;;;;;5107274;28;20423;-75
2023/06/03 09:21:03;;;;;;;1999.90;999.90;;;19.20;84.50;;;;;;5110118;28;20499;-75
2023/06/03 09:23:31;;;;;;;1999.90;999.90;;;19.30;82.00;;;;;;5110043;28;20910;-74
2023/06/03 09:25:57;;;;;;;1999.90;999.90;;;19.70;81.30;;;;;;5109164;28;20481;-76
2023/06/03 09:28:24;;;;;;;1999.90;999.90;;;20.10;80.60;;;;;;5095888;28;20455;-75
2023/06/03 09:30:51;;;;;;;1999.90;999.90;;;20.00;78.30;;;;;;5107601;28;20980;-76
2023/06/03 09:33:19;;;;;;;1999.90;999.90;;;19.10;79.70;;;;;;5101220;28;20420;-74
2023/06/03 09:36:06;;;;;;;1999.90;999.90;;;19.10;81.80;;;;;;5110511;28;20432;-74
2023/06/03 09:38:46;;;;;;;1999.90;999.90;;;19.60;80.30;;;;;;5112812;27;20424;-76
2023/06/03 09:41:17;;;;;;;1999.90;999.90;;;19.70;79.60;;;;;;5108319;27;20457;-74
2023/06/03 09:43:58;;;;;;;1999.90;999.90;;;20.50;79.80;;;;;;5107588;27;20498;-75
2023/06/03 09:46:26;;;;;;;1999.90;999.90;;;20.10;77.60;;;;;;5096725;27;20444;-75
2023/06/03 09:48:54;;;;;;;1999.90;999.90;;;19.70;78.80;;;;;;5110805;28;20531;-73
2023/06/03 09:51:39;;;;;;;1999.90;999.90;;;19.80;78.40;;;;;;5109253;27;20914;-75
2023/06/03 09:54:11;;;;;;;1999.90;999.90;;;19.60;79.00;;;;;;5111492;28;20408;-75
2023/06/03 09:56:38;;;;;;;1999.90;999.90;;;19.50;79.50;;;;;;5113377;28;20515;-75
2023/06/03 09:59:17;;;;;;;1999.90;999.90;;;19.70;80.50;;;;;;5112780;28;20410;-75
2023/06/03 10:01:45;;;;;;;1999.90;999.90;;;20.10;80.70;;;;;;5110144;28;20428;-73
2023/06/03 10:04:15;;;;;;;1999.90;999.90;;;20.10;79.70;;;;;;5105781;28;20990;-74
2023/06/03 10:06:41;;;;;;;1999.90;999.90;;;20.20;80.60;;;;;;5113039;28;20483;-75
2023/06/03 10:09:22;;;;;;;1999.90;999.90;;;20.20;77.70;;;;;;5111960;28;20781;-75
2023/06/03 10:11:50;;;;;;;1999.90;999.90;;;20.40;78.10;;;;;;5108259;27;20432;-75
2023/06/03 10:14:22;;;;;;;1999.90;999.90;;;20.60;77.20;;;;;;5103557;28;20429;-74
2023/06/03 10:17:07;;;;;;;1999.90;999.90;;;20.80;76.60;;;;;;5103303;28;20542;-73
2023/06/03 10:19:36;;;;;;;1999.90;999.90;;;21.30;77.10;;;;;;5112457;28;21050;-71
2023/06/03 10:22:04;;;;;;;1999.90;999.90;;;21.00;73.70;;;;;;5112709;28;20412;-75
2023/06/03 10:24:31;;;;;;;1999.90;999.90;;;20.80;74.30;;;;;;5110993;28;20434;-75
2023/06/03 10:26:58;;;;;;;1999.90;999.90;;;20.70;74.10;;;;;;5106753;28;20472;-75
2023/06/03 10:29:26;;;;;;;1999.90;999.90;;;20.70;76.80;;;;;;5091976;28;20409;-75
2023/06/03 10:31:54;;;;;;;1999.90;999.90;;;20.70;75.80;;;;;;5091929;28;20496;-75
2023/06/03 10:34:22;;;;;;;1999.90;999.90;;;20.70;78.10;;;;;;5093116;28;20880;-75
2023/06/03 10:36:52;;;;;;;1999.90;999.90;;;20.80;77.00;;;;;;5110152;28;20415;-72
2023/06/03 10:39:19;;;;;;;1999.90;999.90;;;21.40;77.40;;;;;;5098583;28;20428;-73
2023/06/03 10:41:47;;;;;;;1999.90;999.90;;;21.20;73.70;;;;;;5101872;28;20826;-75
2023/06/03 10:44:13;;;;;;;1999.90;999.90;;;21.00;74.20;;;;;;5110624;28;20428;-75
2023/06/03 10:46:50;;;;;;;1999.90;999.90;;;20.80;74.20;;;;;;5111407;28;20952;-75
2023/06/03 10:49:19;;;;;;;1999.90;999.90;;;21.00;76.00;;;;;;5105267;28;20424;-74
2023/06/03 10:52:00;;;;;;;1999.90;999.90;;;20.90;75.00;;;;;;5101818;28;20414;-75
2023/06/03 10:54:35;;;;;;;1999.90;999.90;;;20.60;74.90;;;;;;5091875;28;20460;-75
2023/06/03 10:57:06;;;;;;;1999.90;999.90;;;20.90;74.10;;;;;;5091776;28;20420;-75
2023/06/03 10:59:42;;;;;;;1999.90;999.90;;;20.60;74.00;;;;;;5104137;27;20493;-76
2023/06/03 11:02:08;;;;;;;1999.90;999.90;;;20.60;75.50;;;;;;5102805;28;20522;-74
2023/06/03 11:04:37;;;;;;;1999.90;999.90;;;20.50;72.40;;;;;;5100085;28;20481;-75
2023/06/03 11:07:06;;;;;;;1999.90;999.90;;;20.70;74.90;;;;;;5116099;27;20814;-75
2023/06/03 11:09:35;;;;;;;1999.90;999.90;;;20.80;72.20;;;;;;5109852;28;21214;-75
2023/06/03 11:12:13;;;;;;;1999.90;999.90;;;21.10;73.30;;;;;;5107988;28;20436;-75
2023/06/03 11:14:58;;;;;;;1999.90;999.90;;;21.30;72.60;;;;;;5093236;28;20410;-76
2023/06/03 11:17:26;;;;;;;1999.90;999.90;;;21.70;71.40;;;;;;5090397;28;20511;-71
2023/06/03 11:19:55;;;;;;;1999.90;999.90;;;21.60;71.90;;;;;;5093352;28;20424;-74
2023/06/03 11:22:43;;;;;;;1999.90;999.90;;;21.30;71.00;;;;;;5110676;28;20415;-75
2023/06/03 11:25:28;;;;;;;1999.90;999.90;;;21.00;71.60;;;;;;5090761;28;20423;-75
2023/06/03 11:28:27;;;;;;;1999.90;999.90;;;21.10;72.50;;;;;;5090867;28;20753;-72
2023/06/03 11:30:57;;;;;;;1999.90;999.90;;;21.30;69.90;;;;;;5090595;28;20864;-73
2023/06/03 11:33:23;;;;;;;1999.90;999.90;;;21.40;71.20;;;;;;5107091;28;20424;-75
2023/06/03 11:35:50;;;;;;;1999.90;999.90;;;21.30;71.60;;;;;;5092317;28;20410;-75
2023/06/03 11:38:17;;;;;;;1999.90;999.90;;;21.40;68.80;;;;;;5090147;28;20887;-75
2023/06/03 11:40:45;;;;;;;1999.90;999.90;;;21.20;70.40;;;;;;5090571;28;20884;-75
2023/06/03 11:43:12;;;;;;;1999.90;999.90;;;21.00;69.00;;;;;;5091018;28;20418;-75
2023/06/03 11:45:39;;;;;;;1999.90;999.90;;;21.00;71.70;;;;;;5110123;28;20416;-75
2023/06/03 11:48:10;;;;;;;1999.90;999.90;;;21.00;69.90;;;;;;5091410;28;20410;-73
2023/06/03 11:50:49;;;;;;;1999.90;999.90;;;21.40;69.20;;;;;;5090505;28;20903;-73
2023/06/03 11:53:30;;;;;;;1999.90;999.90;;;21.70;69.30;;;;;;5091144;28;20776;-73
2023/06/03 11:56:05;;;;;;;1999.90;999.90;;;21.30;68.60;;;;;;5095661;28;20432;-73
2023/06/03 11:58:32;;;;;;;1999.90;999.90;;;21.40;69.20;;;;;;5102321;28;20453;-73
2023/06/03 12:01:06;;;;;;;1999.90;999.90;;;21.70;68.70;;;;;;5089719;28;20830;-73
2023/06/03 12:03:35;;;;;;;1999.90;999.90;;;21.90;67.10;;;;;;5090476;28;20422;-72
2023/06/03 12:06:03;;;;;;;1999.90;999.90;;;22.10;68.30;;;;;;5090885;28;20421;-73
2023/06/03 12:08:43;;;;;;;1999.90;999.90;;;22.20;66.70;;;;;;5098149;28;20512;-73
2023/06/03 12:11:10;;;;;;;1999.90;999.90;;;22.10;67.20;;;;;;5103091;28;20847;-73